Terminal Aerodrome Forecast
Issued by NWS Brownsville, TX

Current Version | Previous Version | Text Only | Print | Product List | Glossary Off
Versions: 1 2 3 4 5 6 7 8 9 10 11 12 13 14 15 16

000
FTUS44 KBRO 292320
TAFHRL
TAF
KHRL 292320Z 3000/3024 16015G23KT P6SM SCT250
     FM300300 13009KT P6SM SCT030 BKN150
     FM300900 13009KT P6SM VCSH SCT020 OVC100
     FM301500 16012G18KT P6SM VCTS SCT025 BKN035CB PROB30 3018/3024
      4SM TSRA BKN025CB=

USA.gov is the U.S. government's official web portal to all federal, state and local government web resources and services.